Citta Di Savona — IMDS — position and weather

sailwx.info

Track history (hours):
 
Tides and Currents Weather Stations Pressure Air Temp Water Temp Dewpoint Dewpoint Depression Visibility Wind Speed Wind Dir Waves Ship Positions

Citta Di Savona

Last reported at 2016-Sep-29 00:33 UTC. Time now 2016-Sep-29 05:04 UTC.
Position N 44°18' E 008°29'.

Length 31 m; draft 4.2 m.

Type: Tug. MMSI: 247402000.

Date/timePositionNaut miles runAvg speedWind from/ knotsBaromVisibWave heightAir tempDewpointWater temp
2016-Sep-29 00:33N 44°18' E 008°29'0 0.0
2016-Sep-28 21:33N 44°18' E 008°29'0 0.0
2016-Sep-28 19:33N 44°18' E 008°29'0 0.0
2016-Sep-28 16:33N 44°18' E 008°29'0 0.0
2016-Sep-28 15:33N 44°18' E 008°29'0 0.0
2016-Sep-28 12:33N 44°18' E 008°29'0 0.0
2016-Sep-27 10:31N 44°18' E 008°29'0 0.0
2016-Sep-26 20:31N 44°18' E 008°29'0 0.0
2016-Sep-26 19:31N 44°18' E 008°29'0 0.0
2016-Sep-26 15:31N 44°18' E 008°29'0 0.0
2016-Sep-26 13:31N 44°18' E 008°29'2 0.4
2016-Sep-26 08:33N 44°17' E 008°28'2 0.3
2016-Sep-26 02:31N 44°18' E 008°29'0 0.0
2016-Sep-26 01:31N 44°18' E 008°29'0 0.0
2016-Sep-26 00:31N 44°18' E 008°29'0 0.0
2016-Sep-25 12:31N 44°18' E 008°29'0 0.0
2016-Sep-25 11:31N 44°18' E 008°29'0 0.0
2016-Sep-25 10:31N 44°18' E 008°29'1 0.5
2016-Sep-25 09:33N 44°19' E 008°30'1 0.3
2016-Sep-25 07:32N 44°18' E 008°29'0 0.0
2016-Sep-25 04:32N 44°18' E 008°29'0 0.0
2016-Sep-25 00:28N 44°18' E 008°29'0 0.0
2016-Sep-24 22:28N 44°18' E 008°29'0 0.0
2016-Sep-24 12:22N 44°18' E 008°29'0 0.0
2016-Sep-24 03:31N 44°18' E 008°29'0 0.0
2016-Sep-24 02:31N 44°18' E 008°29'0 0.0
2016-Sep-24 01:31N 44°18' E 008°29'0 0.0
2016-Sep-24 00:31N 44°18' E 008°29'0 0.0
2016-Sep-23 19:31N 44°18' E 008°29'0 0.0
2016-Sep-23 17:31N 44°18' E 008°29'0 0.0
2016-Sep-23 16:31N 44°18' E 008°29'0 0.0
2016-Sep-23 15:31N 44°18' E 008°29'0 0.0
2016-Sep-23 13:16N 44°18' E 008°29'0 0.0
2016-Sep-22 12:28N 44°18' E 008°29'1 0.2
2016-Sep-22 04:33N 44°19' E 008°31'1 1.2
2016-Sep-22 03:31N 44°18' E 008°29'0 0.0
2016-Sep-22 00:31N 44°18' E 008°29'0 0.0
2016-Sep-21 23:19N 44°18' E 008°29'0 0.0
2016-Sep-21 19:30N 44°18' E 008°29'0 0.0
2016-Sep-21 16:30N 44°18' E 008°29'0 0.0
2016-Sep-20 17:29N 44°18' E 008°29'0 0.0
2016-Sep-20 14:29N 44°18' E 008°29'0 0.0
2016-Sep-20 13:29N 44°18' E 008°29'3 1.1
2016-Sep-20 10:28N 44°16' E 008°27'4 2.0
2016-Sep-20 08:29N 44°19' E 008°30'1 0.8
2016-Sep-20 07:33N 44°18' E 008°29'0 0.0
2016-Sep-20 06:33N 44°18' E 008°29'0 0.0
2016-Sep-20 02:33N 44°18' E 008°29'0 0.0
2016-Sep-19 19:28N 44°18' E 008°29'0 0.4
2016-Sep-19 18:33N 44°19' E 008°30'0 0.2
2016-Sep-19 16:25N 44°18' E 008°29'0 0.0
2016-Sep-19 14:31N 44°18' E 008°29'0 0.0
2016-Sep-19 13:31N 44°18' E 008°29'0 0.0
2016-Sep-19 12:31N 44°18' E 008°29'0 0.0
2016-Sep-19 11:31N 44°18' E 008°29'0 0.0
2016-Sep-19 07:33N 44°18' E 008°29'2 2.2
2016-Sep-19 06:33N 44°17' E 008°28'  
Track history (hours):
 
Tides and Currents Weather Stations Pressure Air Temp Water Temp Dewpoint Dewpoint Depression Visibility Wind Speed Wind Dir Waves Ship Positions

Citta Di Savona

Last reported at 2016-Sep-29 00:33 UTC. Time now 2016-Sep-29 05:04 UTC.
Position N 44°18' E 008°29'.

Length 31 m; draft 4.2 m.

Type: Tug. MMSI: 247402000.

Date/timePositionNaut miles runAvg speedWind from/ knotsBaromVisibWave heightAir tempDewpointWater temp
2016-Sep-29 00:33N 44°18' E 008°29'0 0.0
2016-Sep-28 21:33N 44°18' E 008°29'0 0.0
2016-Sep-28 19:33N 44°18' E 008°29'0 0.0
2016-Sep-28 16:33N 44°18' E 008°29'0 0.0
2016-Sep-28 15:33N 44°18' E 008°29'0 0.0
2016-Sep-28 12:33N 44°18' E 008°29'0 0.0
2016-Sep-27 10:31N 44°18' E 008°29'0 0.0
2016-Sep-26 20:31N 44°18' E 008°29'0 0.0
2016-Sep-26 19:31N 44°18' E 008°29'0 0.0
2016-Sep-26 15:31N 44°18' E 008°29'0 0.0
2016-Sep-26 13:31N 44°18' E 008°29'2 0.4
2016-Sep-26 08:33N 44°17' E 008°28'2 0.3
2016-Sep-26 02:31N 44°18' E 008°29'0 0.0
2016-Sep-26 01:31N 44°18' E 008°29'0 0.0
2016-Sep-26 00:31N 44°18' E 008°29'0 0.0
2016-Sep-25 12:31N 44°18' E 008°29'0 0.0
2016-Sep-25 11:31N 44°18' E 008°29'0 0.0
2016-Sep-25 10:31N 44°18' E 008°29'1 0.5
2016-Sep-25 09:33N 44°19' E 008°30'1 0.3
2016-Sep-25 07:32N 44°18' E 008°29'0 0.0
2016-Sep-25 04:32N 44°18' E 008°29'0 0.0
2016-Sep-25 00:28N 44°18' E 008°29'0 0.0
2016-Sep-24 22:28N 44°18' E 008°29'0 0.0
2016-Sep-24 12:22N 44°18' E 008°29'0 0.0
2016-Sep-24 03:31N 44°18' E 008°29'0 0.0
2016-Sep-24 02:31N 44°18' E 008°29'0 0.0
2016-Sep-24 01:31N 44°18' E 008°29'0 0.0
2016-Sep-24 00:31N 44°18' E 008°29'0 0.0
2016-Sep-23 19:31N 44°18' E 008°29'0 0.0
2016-Sep-23 17:31N 44°18' E 008°29'0 0.0
2016-Sep-23 16:31N 44°18' E 008°29'0 0.0
2016-Sep-23 15:31N 44°18' E 008°29'0 0.0
2016-Sep-23 13:16N 44°18' E 008°29'0 0.0
2016-Sep-22 12:28N 44°18' E 008°29'1 0.2
2016-Sep-22 04:33N 44°19' E 008°31'1 1.2
2016-Sep-22 03:31N 44°18' E 008°29'0 0.0
2016-Sep-22 00:31N 44°18' E 008°29'0 0.0
2016-Sep-21 23:19N 44°18' E 008°29'0 0.0
2016-Sep-21 19:30N 44°18' E 008°29'0 0.0
2016-Sep-21 16:30N 44°18' E 008°29'0 0.0
2016-Sep-20 17:29N 44°18' E 008°29'0 0.0
2016-Sep-20 14:29N 44°18' E 008°29'0 0.0
2016-Sep-20 13:29N 44°18' E 008°29'3 1.1
2016-Sep-20 10:28N 44°16' E 008°27'4 2.0
2016-Sep-20 08:29N 44°19' E 008°30'1 0.8
2016-Sep-20 07:33N 44°18' E 008°29'0 0.0
2016-Sep-20 06:33N 44°18' E 008°29'0 0.0
2016-Sep-20 02:33N 44°18' E 008°29'0 0.0
2016-Sep-19 19:28N 44°18' E 008°29'0 0.4
2016-Sep-19 18:33N 44°19' E 008°30'0 0.2
2016-Sep-19 16:25N 44°18' E 008°29'0 0.0
2016-Sep-19 14:31N 44°18' E 008°29'0 0.0
2016-Sep-19 13:31N 44°18' E 008°29'0 0.0
2016-Sep-19 12:31N 44°18' E 008°29'0 0.0
2016-Sep-19 11:31N 44°18' E 008°29'0 0.0
2016-Sep-19 07:33N 44°18' E 008°29'2 2.2
2016-Sep-19 06:33N 44°17' E 008°28'  

Dump ship's entire track history